sensor_id;sensor_type;location;lat;lon;timestamp;temperature;humidity
11284;DHT22;5698;47.332;11.180;2023-04-25T00:01:04;2.80;99.90
11284;DHT22;5698;47.332;11.180;2023-04-25T00:03:31;2.80;99.90
11284;DHT22;5698;47.332;11.180;2023-04-25T00:05:58;2.70;99.90
11284;DHT22;5698;47.332;11.180;2023-04-25T00:08:28;2.70;99.90
11284;DHT22;5698;47.332;11.180;2023-04-25T00:10:55;2.70;99.90
11284;DHT22;5698;47.332;11.180;2023-04-25T00:13:23;2.70;99.90
11284;DHT22;5698;47.332;11.180;2023-04-25T00:15:51;2.70;99.90
11284;DHT22;5698;47.332;11.180;2023-04-25T00:18:20;2.80;99.90
11284;DHT22;5698;47.332;11.180;2023-04-25T00:20:47;2.80;99.90
11284;DHT22;5698;47.332;11.180;2023-04-25T00:23:14;2.80;99.90
11284;DHT22;5698;47.332;11.180;2023-04-25T00:25:43;2.80;99.90
11284;DHT22;5698;47.332;11.180;2023-04-25T00:28:10;2.70;99.90
11284;DHT22;5698;47.332;11.180;2023-04-25T00:30:37;2.70;99.90
11284;DHT22;5698;47.332;11.180;2023-04-25T00:33:04;2.60;99.90
11284;DHT22;5698;47.332;11.180;2023-04-25T00:35:33;2.60;99.90
11284;DHT22;5698;47.332;11.180;2023-04-25T00:38:01;2.50;99.90
11284;DHT22;5698;47.332;11.180;2023-04-25T00:40:28;2.50;99.90
11284;DHT22;5698;47.332;11.180;2023-04-25T00:42:55;2.60;99.90
11284;DHT22;5698;47.332;11.180;2023-04-25T00:45:24;2.60;99.90
11284;DHT22;5698;47.332;11.180;2023-04-25T00:47:54;2.80;99.90
11284;DHT22;5698;47.332;11.180;2023-04-25T00:50:21;2.80;99.90
11284;DHT22;5698;47.332;11.180;2023-04-25T00:52:50;2.80;99.90
11284;DHT22;5698;47.332;11.180;2023-04-25T00:55:17;2.70;99.90
11284;DHT22;5698;47.332;11.180;2023-04-25T00:57:44;2.80;99.90
11284;DHT22;5698;47.332;11.180;2023-04-25T01:00:13;2.80;99.90
11284;DHT22;5698;47.332;11.180;2023-04-25T01:02:40;2.90;99.90
11284;DHT22;5698;47.332;11.180;2023-04-25T01:05:08;2.90;99.90
11284;DHT22;5698;47.332;11.180;2023-04-25T01:07:35;2.70;99.90
11284;DHT22;5698;47.332;11.180;2023-04-25T01:10:05;2.40;99.90
11284;DHT22;5698;47.332;11.180;2023-04-25T01:12:33;2.20;99.90
11284;DHT22;5698;47.332;11.180;2023-04-25T01:15:00;2.10;99.90
11284;DHT22;5698;47.332;11.180;2023-04-25T01:17:27;2.10;99.90
11284;DHT22;5698;47.332;11.180;2023-04-25T01:19:54;2.00;99.90
11284;DHT22;5698;47.332;11.180;2023-04-25T01:22:23;2.00;99.90
11284;DHT22;5698;47.332;11.180;2023-04-25T01:24:50;2.00;99.90
11284;DHT22;5698;47.332;11.180;2023-04-25T01:27:17;2.00;99.90
11284;DHT22;5698;47.332;11.180;2023-04-25T01:29:46;2.00;99.90
11284;DHT22;5698;47.332;11.180;2023-04-25T01:32:13;2.00;99.90
11284;DHT22;5698;47.332;11.180;2023-04-25T01:34:40;2.00;99.90
11284;DHT22;5698;47.332;11.180;2023-04-25T01:37:08;2.10;99.90
11284;DHT22;5698;47.332;11.180;2023-04-25T01:39:36;2.00;99.90
11284;DHT22;5698;47.332;11.180;2023-04-25T01:42:03;2.10;99.90
11284;DHT22;5698;47.332;11.180;2023-04-25T01:44:30;2.20;99.90
11284;DHT22;5698;47.332;11.180;2023-04-25T01:46:57;2.30;99.90
11284;DHT22;5698;47.332;11.180;2023-04-25T01:49:24;2.30;99.90
11284;DHT22;5698;47.332;11.180;2023-04-25T01:51:51;2.40;99.90
11284;DHT22;5698;47.332;11.180;2023-04-25T01:54:19;2.40;99.90
11284;DHT22;5698;47.332;11.180;2023-04-25T01:56:51;2.30;99.90
11284;DHT22;5698;47.332;11.180;2023-04-25T01:59:18;2.10;99.90
11284;DHT22;5698;47.332;11.180;2023-04-25T02:01:47;2.10;99.90
11284;DHT22;5698;47.332;11.180;2023-04-25T02:04:14;2.20;99.90
11284;DHT22;5698;47.332;11.180;2023-04-25T02:06:41;2.20;99.90
11284;DHT22;5698;47.332;11.180;2023-04-25T02:09:08;2.10;99.90
11284;DHT22;5698;47.332;11.180;2023-04-25T02:11:35;2.10;99.90
11284;DHT22;5698;47.332;11.180;2023-04-25T02:14:03;2.00;99.90
11284;DHT22;5698;47.332;11.180;2023-04-25T02:16:30;2.00;99.90
11284;DHT22;5698;47.332;11.180;2023-04-25T02:18:57;1.90;99.90
11284;DHT22;5698;47.332;11.180;2023-04-25T02:21:24;2.00;99.90
11284;DHT22;5698;47.332;11.180;2023-04-25T02:23:52;2.00;99.90
11284;DHT22;5698;47.332;11.180;2023-04-25T02:26:19;2.00;99.90
11284;DHT22;5698;47.332;11.180;2023-04-25T02:28:46;2.00;99.90
11284;DHT22;5698;47.332;11.180;2023-04-25T02:31:15;2.10;99.90
11284;DHT22;5698;47.332;11.180;2023-04-25T02:33:42;2.00;99.90
11284;DHT22;5698;47.332;11.180;2023-04-25T02:36:09;2.00;99.90
11284;DHT22;5698;47.332;11.180;2023-04-25T02:38:36;2.00;99.90
11284;DHT22;5698;47.332;11.180;2023-04-25T02:41:03;2.00;99.90
11284;DHT22;5698;47.332;11.180;2023-04-25T02:43:30;2.10;99.90
11284;DHT22;5698;47.332;11.180;2023-04-25T02:45:57;2.20;99.90
11284;DHT22;5698;47.332;11.180;2023-04-25T02:48:26;2.20;99.90
11284;DHT22;5698;47.332;11.180;2023-04-25T02:50:54;2.20;99.90
11284;DHT22;5698;47.332;11.180;2023-04-25T02:53:21;2.20;99.90
11284;DHT22;5698;47.332;11.180;2023-04-25T02:55:48;2.30;99.90
11284;DHT22;5698;47.332;11.180;2023-04-25T02:58:14;2.20;99.90
11284;DHT22;5698;47.332;11.180;2023-04-25T03:00:42;2.20;99.90
11284;DHT22;5698;47.332;11.180;2023-04-25T03:03:09;2.20;99.90
11284;DHT22;5698;47.332;11.180;2023-04-25T03:05:37;2.30;99.90
11284;DHT22;5698;47.332;11.180;2023-04-25T03:08:04;2.20;99.90
11284;DHT22;5698;47.332;11.180;2023-04-25T03:10:31;2.30;99.90
11284;DHT22;5698;47.332;11.180;2023-04-25T03:12:58;2.20;99.90
11284;DHT22;5698;47.332;11.180;2023-04-25T03:15:25;2.10;99.90
11284;DHT22;5698;47.332;11.180;2023-04-25T03:17:52;2.00;99.90
11284;DHT22;5698;47.332;11.180;2023-04-25T03:20:19;1.90;99.90
11284;DHT22;5698;47.332;11.180;2023-04-25T03:22:48;1.90;99.90
11284;DHT22;5698;47.332;11.180;2023-04-25T03:25:15;1.90;99.90
11284;DHT22;5698;47.332;11.180;2023-04-25T03:27:42;1.90;99.90
11284;DHT22;5698;47.332;11.180;2023-04-25T03:30:09;2.00;99.90
11284;DHT22;5698;47.332;11.180;2023-04-25T03:32:36;2.00;99.90
11284;DHT22;5698;47.332;11.180;2023-04-25T03:35:04;2.10;99.90
11284;DHT22;5698;47.332;11.180;2023-04-25T03:37:31;2.10;99.90
11284;DHT22;5698;47.332;11.180;2023-04-25T03:39:59;2.10;99.90
11284;DHT22;5698;47.332;11.180;2023-04-25T03:42:26;2.00;99.90
11284;DHT22;5698;47.332;11.180;2023-04-25T03:44:53;2.00;99.90
11284;DHT22;5698;47.332;11.180;2023-04-25T03:47:20;2.00;99.90
11284;DHT22;5698;47.332;11.180;2023-04-25T03:49:47;2.00;99.90
11284;DHT22;5698;47.332;11.180;2023-04-25T03:52:17;1.90;99.90
11284;DHT22;5698;47.332;11.180;2023-04-25T03:54:44;1.90;99.90
11284;DHT22;5698;47.332;11.180;2023-04-25T03:57:12;1.90;99.90
11284;DHT22;5698;47.332;11.180;2023-04-25T03:59:39;1.80;99.90
11284;DHT22;5698;47.332;11.180;2023-04-25T04:02:06;1.90;99.90
11284;DHT22;5698;47.332;11.180;2023-04-25T04:04:33;1.90;99.90
11284;DHT22;5698;47.332;11.180;2023-04-25T04:07:01;1.90;99.90
11284;DHT22;5698;47.332;11.180;2023-04-25T04:09:28;1.80;99.90
11284;DHT22;5698;47.332;11.180;2023-04-25T04:11:55;1.80;99.90
11284;DHT22;5698;47.332;11.180;2023-04-25T04:14:23;1.80;99.90
11284;DHT22;5698;47.332;11.180;2023-04-25T04:16:51;1.70;99.90
11284;DHT22;5698;47.332;11.180;2023-04-25T04:19:18;1.70;99.90
11284;DHT22;5698;47.332;11.180;2023-04-25T04:21:45;1.50;99.90
11284;DHT22;5698;47.332;11.180;2023-04-25T04:24:12;1.50;99.90
11284;DHT22;5698;47.332;11.180;2023-04-25T04:26:39;1.50;99.90
11284;DHT22;5698;47.332;11.180;2023-04-25T04:29:06;1.50;99.90
11284;DHT22;5698;47.332;11.180;2023-04-25T04:31:35;1.60;99.90
11284;DHT22;5698;47.332;11.180;2023-04-25T04:34:02;1.50;99.90
11284;DHT22;5698;47.332;11.180;2023-04-25T04:36:30;1.40;99.90
11284;DHT22;5698;47.332;11.180;2023-04-25T04:38:57;1.30;99.90
11284;DHT22;5698;47.332;11.180;2023-04-25T04:41:24;1.20;99.90
11284;DHT22;5698;47.332;11.180;2023-04-25T04:43:51;1.30;99.90
11284;DHT22;5698;47.332;11.180;2023-04-25T04:46:18;1.30;99.90
11284;DHT22;5698;47.332;11.180;2023-04-25T04:48:47;1.40;99.90
11284;DHT22;5698;47.332;11.180;2023-04-25T04:51:14;1.40;99.90
11284;DHT22;5698;47.332;11.180;2023-04-25T04:53:40;1.30;99.90
11284;DHT22;5698;47.332;11.180;2023-04-25T04:56:07;1.30;99.90
11284;DHT22;5698;47.332;11.180;2023-04-25T04:58:34;1.30;99.90
11284;DHT22;5698;47.332;11.180;2023-04-25T05:01:02;1.30;99.90
11284;DHT22;5698;47.332;11.180;2023-04-25T05:03:29;1.30;99.90
11284;DHT22;5698;47.332;11.180;2023-04-25T05:05:58;1.40;99.90
11284;DHT22;5698;47.332;11.180;2023-04-25T05:08:25;1.40;99.90
11284;DHT22;5698;47.332;11.180;2023-04-25T05:10:52;1.40;99.90
11284;DHT22;5698;47.332;11.180;2023-04-25T05:13:19;1.40;99.90
11284;DHT22;5698;47.332;11.180;2023-04-25T05:15:46;1.50;99.90
11284;DHT22;5698;47.332;11.180;2023-04-25T05:18:13;1.60;99.90
11284;DHT22;5698;47.332;11.180;2023-04-25T05:20:40;1.60;99.90
11284;DHT22;5698;47.332;11.180;2023-04-25T05:23:08;1.60;99.90
11284;DHT22;5698;47.332;11.180;2023-04-25T05:25:35;1.70;99.90
11284;DHT22;5698;47.332;11.180;2023-04-25T05:28:02;1.80;99.90
11284;DHT22;5698;47.332;11.180;2023-04-25T05:30:30;2.00;99.90
11284;DHT22;5698;47.332;11.180;2023-04-25T05:32:57;2.20;99.90
11284;DHT22;5698;47.332;11.180;2023-04-25T05:35:24;2.30;99.90
11284;DHT22;5698;47.332;11.180;2023-04-25T05:37:51;2.40;99.90
11284;DHT22;5698;47.332;11.180;2023-04-25T05:40:19;2.50;99.90
11284;DHT22;5698;47.332;11.180;2023-04-25T05:42:46;2.60;99.90
11284;DHT22;5698;47.332;11.180;2023-04-25T05:45:13;2.60;99.90
11284;DHT22;5698;47.332;11.180;2023-04-25T05:47:40;2.60;99.90
11284;DHT22;5698;47.332;11.180;2023-04-25T05:50:08;2.60;99.90
11284;DHT22;5698;47.332;11.180;2023-04-25T05:52:35;2.60;99.90
11284;DHT22;5698;47.332;11.180;2023-04-25T05:55:02;2.60;99.90
11284;DHT22;5698;47.332;11.180;2023-04-25T05:57:31;2.80;99.90
11284;DHT22;5698;47.332;11.180;2023-04-25T05:59:58;2.90;99.90
11284;DHT22;5698;47.332;11.180;2023-04-25T06:02:25;3.10;99.90
11284;DHT22;5698;47.332;11.180;2023-04-25T06:04:52;3.20;99.90
11284;DHT22;5698;47.332;11.180;2023-04-25T06:07:19;3.30;99.90
11284;DHT22;5698;47.332;11.180;2023-04-25T06:09:46;3.40;99.90
11284;DHT22;5698;47.332;11.180;2023-04-25T06:12:13;3.60;99.90
11284;DHT22;5698;47.332;11.180;2023-04-25T06:14:42;3.70;99.90
11284;DHT22;5698;47.332;11.180;2023-04-25T06:17:09;3.70;99.90
11284;DHT22;5698;47.332;11.180;2023-04-25T06:19:36;3.70;99.90
11284;DHT22;5698;47.332;11.180;2023-04-25T06:22:03;3.70;99.90
11284;DHT22;5698;47.332;11.180;2023-04-25T06:24:30;3.80;99.90
11284;DHT22;5698;47.332;11.180;2023-04-25T06:26:57;3.90;99.90
11284;DHT22;5698;47.332;11.180;2023-04-25T06:29:24;3.90;99.90
11284;DHT22;5698;47.332;11.180;2023-04-25T06:31:52;4.00;99.90
11284;DHT22;5698;47.332;11.180;2023-04-25T06:34:19;4.00;99.90
11284;DHT22;5698;47.332;11.180;2023-04-25T06:36:46;4.10;99.90
11284;DHT22;5698;47.332;11.180;2023-04-25T06:39:13;4.10;99.90
11284;DHT22;5698;47.332;11.180;2023-04-25T06:41:40;4.10;99.90
11284;DHT22;5698;47.332;11.180;2023-04-25T06:44:07;4.10;99.90
11284;DHT22;5698;47.332;11.180;2023-04-25T06:46:34;4.20;99.90
11284;DHT22;5698;47.332;11.180;2023-04-25T06:49:03;4.30;99.90
11284;DHT22;5698;47.332;11.180;2023-04-25T06:51:30;4.30;99.90
11284;DHT22;5698;47.332;11.180;2023-04-25T06:53:57;4.30;99.90
11284;DHT22;5698;47.332;11.180;2023-04-25T06:56:24;4.40;99.90
11284;DHT22;5698;47.332;11.180;2023-04-25T06:58:51;4.40;99.90
11284;DHT22;5698;47.332;11.180;2023-04-25T07:01:18;4.50;99.90
11284;DHT22;5698;47.332;11.180;2023-04-25T07:03:45;4.50;99.90
11284;DHT22;5698;47.332;11.180;2023-04-25T07:06:13;4.40;99.90
11284;DHT22;5698;47.332;11.180;2023-04-25T07:08:40;4.30;99.90
11284;DHT22;5698;47.332;11.180;2023-04-25T07:11:07;4.20;99.90
11284;DHT22;5698;47.332;11.180;2023-04-25T07:13:34;4.30;99.90
11284;DHT22;5698;47.332;11.180;2023-04-25T07:16:02;4.30;99.90
11284;DHT22;5698;47.332;11.180;2023-04-25T07:18:29;4.40;99.90
11284;DHT22;5698;47.332;11.180;2023-04-25T07:20:56;4.40;99.90
11284;DHT22;5698;47.332;11.180;2023-04-25T07:23:24;4.40;99.90
11284;DHT22;5698;47.332;11.180;2023-04-25T07:25:51;4.40;99.90
11284;DHT22;5698;47.332;11.180;2023-04-25T07:28:18;4.50;99.90
11284;DHT22;5698;47.332;11.180;2023-04-25T07:30:45;4.60;99.90
11284;DHT22;5698;47.332;11.180;2023-04-25T07:33:12;4.60;99.90
11284;DHT22;5698;47.332;11.180;2023-04-25T07:35:40;4.70;99.90
11284;DHT22;5698;47.332;11.180;2023-04-25T07:38:07;4.80;99.90
11284;DHT22;5698;47.332;11.180;2023-04-25T07:40:37;4.90;99.90
11284;DHT22;5698;47.332;11.180;2023-04-25T07:43:04;4.90;99.90
11284;DHT22;5698;47.332;11.180;2023-04-25T07:45:31;4.80;99.90
11284;DHT22;5698;47.332;11.180;2023-04-25T07:47:58;4.90;99.90
11284;DHT22;5698;47.332;11.180;2023-04-25T07:50:25;5.00;99.90
11284;DHT22;5698;47.332;11.180;2023-04-25T07:52:52;5.20;99.90
11284;DHT22;5698;47.332;11.180;2023-04-25T07:55:19;5.50;99.90
11284;DHT22;5698;47.332;11.180;2023-04-25T07:57:47;5.80;99.90
11284;DHT22;5698;47.332;11.180;2023-04-25T08:00:14;6.20;99.90
11284;DHT22;5698;47.332;11.180;2023-04-25T08:02:41;6.60;99.90
11284;DHT22;5698;47.332;11.180;2023-04-25T08:05:08;6.90;99.90
11284;DHT22;5698;47.332;11.180;2023-04-25T08:07:37;7.40;99.90
11284;DHT22;5698;47.332;11.180;2023-04-25T08:10:05;7.80;99.90
11284;DHT22;5698;47.332;11.180;2023-04-25T08:12:33;8.20;99.90
11284;DHT22;5698;47.332;11.180;2023-04-25T08:15:03;8.40;99.90
11284;DHT22;5698;47.332;11.180;2023-04-25T08:17:30;8.60;99.90
11284;DHT22;5698;47.332;11.180;2023-04-25T08:19:57;8.70;99.90
11284;DHT22;5698;47.332;11.180;2023-04-25T08:22:24;9.00;99.90
11284;DHT22;5698;47.332;11.180;2023-04-25T08:24:51;9.20;99.90
11284;DHT22;5698;47.332;11.180;2023-04-25T08:27:18;9.50;99.90
11284;DHT22;5698;47.332;11.180;2023-04-25T08:29:46;9.80;99.90
11284;DHT22;5698;47.332;11.180;2023-04-25T08:32:14;10.00;99.90
11284;DHT22;5698;47.332;11.180;2023-04-25T08:34:41;10.30;99.90
11284;DHT22;5698;47.332;11.180;2023-04-25T08:37:10;10.60;99.90
11284;DHT22;5698;47.332;11.180;2023-04-25T08:39:37;10.70;99.90
11284;DHT22;5698;47.332;11.180;2023-04-25T08:42:06;10.80;99.90
11284;DHT22;5698;47.332;11.180;2023-04-25T08:44:34;10.90;99.90
11284;DHT22;5698;47.332;11.180;2023-04-25T08:47:03;10.80;99.90
11284;DHT22;5698;47.332;11.180;2023-04-25T08:49:32;10.80;99.90
11284;DHT22;5698;47.332;11.180;2023-04-25T08:52:01;10.70;99.90
11284;DHT22;5698;47.332;11.180;2023-04-25T08:54:30;10.50;99.90
11284;DHT22;5698;47.332;11.180;2023-04-25T08:57:01;10.50;99.90
11284;DHT22;5698;47.332;11.180;2023-04-25T08:59:30;10.50;99.80
11284;DHT22;5698;47.332;11.180;2023-04-25T09:01:57;9.90;99.30
11284;DHT22;5698;47.332;11.180;2023-04-25T09:04:24;9.80;99.90
11284;DHT22;5698;47.332;11.180;2023-04-25T09:06:52;9.90;99.90
11284;DHT22;5698;47.332;11.180;2023-04-25T09:09:19;10.00;99.90
11284;DHT22;5698;47.332;11.180;2023-04-25T09:11:46;10.00;99.90
11284;DHT22;5698;47.332;11.180;2023-04-25T09:14:14;10.00;99.90
11284;DHT22;5698;47.332;11.180;2023-04-25T09:16:58;9.90;99.10
11284;DHT22;5698;47.332;11.180;2023-04-25T09:19:27;9.80;99.90
11284;DHT22;5698;47.332;11.180;2023-04-25T09:21:57;9.60;99.90
11284;DHT22;5698;47.332;11.180;2023-04-25T09:24:33;9.50;99.90
11284;DHT22;5698;47.332;11.180;2023-04-25T09:27:03;9.40;99.60
11284;DHT22;5698;47.332;11.180;2023-04-25T09:29:31;9.40;99.90
11284;DHT22;5698;47.332;11.180;2023-04-25T09:32:12;9.30;99.90
11284;DHT22;5698;47.332;11.180;2023-04-25T09:34:40;9.20;99.90
11284;DHT22;5698;47.332;11.180;2023-04-25T09:37:10;9.00;98.50
11284;DHT22;5698;47.332;11.180;2023-04-25T09:39:37;8.80;98.20
11284;DHT22;5698;47.332;11.180;2023-04-25T09:42:04;8.70;99.70
11284;DHT22;5698;47.332;11.180;2023-04-25T09:44:32;8.70;99.40
11284;DHT22;5698;47.332;11.180;2023-04-25T09:46:59;8.80;99.80
11284;DHT22;5698;47.332;11.180;2023-04-25T09:49:27;8.80;98.90
11284;DHT22;5698;47.332;11.180;2023-04-25T09:51:55;8.80;99.90
11284;DHT22;5698;47.332;11.180;2023-04-25T09:54:24;8.90;99.60
11284;DHT22;5698;47.332;11.180;2023-04-25T09:56:52;9.00;99.00
11284;DHT22;5698;47.332;11.180;2023-04-25T09:59:20;9.00;99.30
11284;DHT22;5698;47.332;11.180;2023-04-25T10:01:48;9.10;99.30
11284;DHT22;5698;47.332;11.180;2023-04-25T10:04:19;9.20;99.40
11284;DHT22;5698;47.332;11.180;2023-04-25T10:06:49;9.40;99.80
11284;DHT22;5698;47.332;11.180;2023-04-25T10:09:19;9.60;99.90
11284;DHT22;5698;47.332;11.180;2023-04-25T10:11:48;9.90;98.20
11284;DHT22;5698;47.332;11.180;2023-04-25T10:14:16;10.10;97.50
11284;DHT22;5698;47.332;11.180;2023-04-25T10:16:43;10.30;96.70
11284;DHT22;5698;47.332;11.180;2023-04-25T10:19:11;10.30;95.60
11284;DHT22;5698;47.332;11.180;2023-04-25T10:21:44;10.30;94.10
11284;DHT22;5698;47.332;11.180;2023-04-25T10:24:13;10.10;94.60
11284;DHT22;5698;47.332;11.180;2023-04-25T10:26:41;10.00;95.30
11284;DHT22;5698;47.332;11.180;2023-04-25T10:29:09;9.90;95.20
11284;DHT22;5698;47.332;11.180;2023-04-25T10:31:45;9.70;93.70
11284;DHT22;5698;47.332;11.180;2023-04-25T10:34:12;9.60;94.40
11284;DHT22;5698;47.332;11.180;2023-04-25T10:36:39;9.40;93.80
11284;DHT22;5698;47.332;11.180;2023-04-25T10:39:07;8.80;94.40
11284;DHT22;5698;47.332;11.180;2023-04-25T10:41:46;8.50;96.00
11284;DHT22;5698;47.332;11.180;2023-04-25T10:44:15;8.60;95.90
11284;DHT22;5698;47.332;11.180;2023-04-25T10:46:44;8.60;96.00
11284;DHT22;5698;47.332;11.180;2023-04-25T10:49:14;8.70;96.90
11284;DHT22;5698;47.332;11.180;2023-04-25T10:52:14;8.90;96.60
11284;DHT22;5698;47.332;11.180;2023-04-25T10:54:42;9.10;95.90
11284;DHT22;5698;47.332;11.180;2023-04-25T10:57:28;9.20;95.70
11284;DHT22;5698;47.332;11.180;2023-04-25T11:00:00;9.30;96.30
11284;DHT22;5698;47.332;11.180;2023-04-25T11:02:29;9.30;96.30
11284;DHT22;5698;47.332;11.180;2023-04-25T11:04:56;9.10;96.00
11284;DHT22;5698;47.332;11.180;2023-04-25T11:07:30;9.00;95.50
11284;DHT22;5698;47.332;11.180;2023-04-25T11:10:01;8.60;97.20
11284;DHT22;5698;47.332;11.180;2023-04-25T11:12:30;8.30;99.70
11284;DHT22;5698;47.332;11.180;2023-04-25T11:15:02;7.90;99.90
11284;DHT22;5698;47.332;11.180;2023-04-25T11:17:30;7.40;99.80
11284;DHT22;5698;47.332;11.180;2023-04-25T11:19:57;7.10;99.90
11284;DHT22;5698;47.332;11.180;2023-04-25T11:22:24;6.50;99.90
11284;DHT22;5698;47.332;11.180;2023-04-25T11:24:52;6.10;99.90
11284;DHT22;5698;47.332;11.180;2023-04-25T11:27:20;5.90;99.90
11284;DHT22;5698;47.332;11.180;2023-04-25T11:29:50;5.90;99.90
11284;DHT22;5698;47.332;11.180;2023-04-25T11:32:19;6.20;99.90
11284;DHT22;5698;47.332;11.180;2023-04-25T11:34:46;6.70;99.90
11284;DHT22;5698;47.332;11.180;2023-04-25T11:37:14;7.30;99.90
11284;DHT22;5698;47.332;11.180;2023-04-25T11:39:44;7.80;99.90
11284;DHT22;5698;47.332;11.180;2023-04-25T11:42:12;8.40;99.90
11284;DHT22;5698;47.332;11.180;2023-04-25T11:44:39;8.70;99.90
11284;DHT22;5698;47.332;11.180;2023-04-25T11:47:07;9.10;99.90
11284;DHT22;5698;47.332;11.180;2023-04-25T11:49:35;9.50;99.90
11284;DHT22;5698;47.332;11.180;2023-04-25T11:52:02;9.50;99.90
11284;DHT22;5698;47.332;11.180;2023-04-25T11:54:30;9.50;99.90
11284;DHT22;5698;47.332;11.180;2023-04-25T11:56:57;9.50;99.90
11284;DHT22;5698;47.332;11.180;2023-04-25T11:59:25;9.50;99.90
11284;DHT22;5698;47.332;11.180;2023-04-25T12:01:52;9.60;99.90
11284;DHT22;5698;47.332;11.180;2023-04-25T12:04:21;9.70;99.90
11284;DHT22;5698;47.332;11.180;2023-04-25T12:06:50;9.90;99.90
11284;DHT22;5698;47.332;11.180;2023-04-25T12:09:19;10.00;99.90
11284;DHT22;5698;47.332;11.180;2023-04-25T12:11:48;10.20;99.90
11284;DHT22;5698;47.332;11.180;2023-04-25T12:14:21;10.30;99.90
11284;DHT22;5698;47.332;11.180;2023-04-25T12:16:50;10.50;99.90
11284;DHT22;5698;47.332;11.180;2023-04-25T12:19:18;10.60;97.60
11284;DHT22;5698;47.332;11.180;2023-04-25T12:21:46;10.50;97.80
11284;DHT22;5698;47.332;11.180;2023-04-25T12:24:16;10.40;97.60
11284;DHT22;5698;47.332;11.180;2023-04-25T12:26:51;10.50;97.90
11284;DHT22;5698;47.332;11.180;2023-04-25T12:29:19;10.50;98.30
11284;DHT22;5698;47.332;11.180;2023-04-25T12:31:47;10.50;98.30
11284;DHT22;5698;47.332;11.180;2023-04-25T12:34:14;10.40;98.30
11284;DHT22;5698;47.332;11.180;2023-04-25T12:36:41;10.30;98.80
11284;DHT22;5698;47.332;11.180;2023-04-25T12:39:08;10.30;99.10
11284;DHT22;5698;47.332;11.180;2023-04-25T12:41:42;10.10;98.70
11284;DHT22;5698;47.332;11.180;2023-04-25T12:44:09;10.10;99.70
11284;DHT22;5698;47.332;11.180;2023-04-25T12:46:36;10.30;99.90
11284;DHT22;5698;47.332;11.180;2023-04-25T12:49:04;10.40;99.00
11284;DHT22;5698;47.332;11.180;2023-04-25T12:51:31;10.40;97.50
11284;DHT22;5698;47.332;11.180;2023-04-25T12:53:58;10.40;96.70
11284;DHT22;5698;47.332;11.180;2023-04-25T12:56:26;10.30;95.50
11284;DHT22;5698;47.332;11.180;2023-04-25T12:58:54;10.20;93.70
11284;DHT22;5698;47.332;11.180;2023-04-25T13:01:22;10.00;94.50
11284;DHT22;5698;47.332;11.180;2023-04-25T13:03:49;9.20;96.20
11284;DHT22;5698;47.332;11.180;2023-04-25T13:06:17;9.00;94.60
11284;DHT22;5698;47.332;11.180;2023-04-25T13:08:44;9.10;96.30
11284;DHT22;5698;47.332;11.180;2023-04-25T13:11:11;9.20;95.00
11284;DHT22;5698;47.332;11.180;2023-04-25T13:13:40;9.40;95.10
11284;DHT22;5698;47.332;11.180;2023-04-25T13:16:09;9.50;95.60
11284;DHT22;5698;47.332;11.180;2023-04-25T13:18:36;9.70;94.60
11284;DHT22;5698;47.332;11.180;2023-04-25T13:21:03;9.70;95.10
11284;DHT22;5698;47.332;11.180;2023-04-25T13:23:30;9.80;97.10
11284;DHT22;5698;47.332;11.180;2023-04-25T13:25:57;10.00;97.40
11284;DHT22;5698;47.332;11.180;2023-04-25T13:28:26;10.40;95.60
11284;DHT22;5698;47.332;11.180;2023-04-25T13:30:53;10.60;93.80
11284;DHT22;5698;47.332;11.180;2023-04-25T13:33:22;10.70;94.40
11284;DHT22;5698;47.332;11.180;2023-04-25T13:35:49;10.80;94.30
11284;DHT22;5698;47.332;11.180;2023-04-25T13:38:20;10.60;93.10
11284;DHT22;5698;47.332;11.180;2023-04-25T13:40:48;10.60;94.60
11284;DHT22;5698;47.332;11.180;2023-04-25T13:43:15;10.70;93.60
11284;DHT22;5698;47.332;11.180;2023-04-25T13:45:42;10.70;94.00
11284;DHT22;5698;47.332;11.180;2023-04-25T13:48:09;10.60;95.50
11284;DHT22;5698;47.332;11.180;2023-04-25T13:50:37;10.50;95.80
11284;DHT22;5698;47.332;11.180;2023-04-25T13:53:04;10.50;97.00
11284;DHT22;5698;47.332;11.180;2023-04-25T13:55:33;10.30;96.50
11284;DHT22;5698;47.332;11.180;2023-04-25T13:58:00;10.00;96.80
11284;DHT22;5698;47.332;11.180;2023-04-25T14:00:33;9.70;95.50
11284;DHT22;5698;47.332;11.180;2023-04-25T14:03:00;9.70;97.20
11284;DHT22;5698;47.332;11.180;2023-04-25T14:05:30;9.70;97.10
11284;DHT22;5698;47.332;11.180;2023-04-25T14:07:59;9.70;97.10
11284;DHT22;5698;47.332;11.180;2023-04-25T14:10:26;9.40;97.00
11284;DHT22;5698;47.332;11.180;2023-04-25T14:12:53;9.10;96.80
11284;DHT22;5698;47.332;11.180;2023-04-25T14:15:20;8.70;95.90
11284;DHT22;5698;47.332;11.180;2023-04-25T14:17:47;8.50;95.70
11284;DHT22;5698;47.332;11.180;2023-04-25T14:20:15;8.20;95.30
11284;DHT22;5698;47.332;11.180;2023-04-25T14:22:45;8.20;97.20
11284;DHT22;5698;47.332;11.180;2023-04-25T14:25:14;7.90;96.00
11284;DHT22;5698;47.332;11.180;2023-04-25T14:27:41;8.00;96.10
11284;DHT22;5698;47.332;11.180;2023-04-25T14:30:10;8.00;95.90
11284;DHT22;5698;47.332;11.180;2023-04-25T14:32:37;8.00;96.50
11284;DHT22;5698;47.332;11.180;2023-04-25T14:35:05;8.00;96.30
11284;DHT22;5698;47.332;11.180;2023-04-25T14:37:33;7.80;95.80
11284;DHT22;5698;47.332;11.180;2023-04-25T14:40:00;7.60;97.20
11284;DHT22;5698;47.332;11.180;2023-04-25T14:42:28;7.60;97.70
11284;DHT22;5698;47.332;11.180;2023-04-25T14:44:56;7.50;98.10
11284;DHT22;5698;47.332;11.180;2023-04-25T14:47:22;7.30;97.80
11284;DHT22;5698;47.332;11.180;2023-04-25T14:49:49;7.10;98.90
11284;DHT22;5698;47.332;11.180;2023-04-25T14:52:19;6.50;99.90
11284;DHT22;5698;47.332;11.180;2023-04-25T14:54:46;6.50;99.90
11284;DHT22;5698;47.332;11.180;2023-04-25T14:57:13;6.30;99.90
11284;DHT22;5698;47.332;11.180;2023-04-25T14:59:42;6.30;99.90
11284;DHT22;5698;47.332;11.180;2023-04-25T15:02:09;6.30;99.90
11284;DHT22;5698;47.332;11.180;2023-04-25T15:04:36;6.30;99.90
11284;DHT22;5698;47.332;11.180;2023-04-25T15:07:03;6.20;99.90
11284;DHT22;5698;47.332;11.180;2023-04-25T15:09:30;6.20;99.90
11284;DHT22;5698;47.332;11.180;2023-04-25T15:11:57;6.10;99.90
11284;DHT22;5698;47.332;11.180;2023-04-25T15:14:24;6.00;99.90
11284;DHT22;5698;47.332;11.180;2023-04-25T15:16:53;6.00;99.90
11284;DHT22;5698;47.332;11.180;2023-04-25T15:19:20;6.00;99.90
11284;DHT22;5698;47.332;11.180;2023-04-25T15:21:47;6.00;99.90
11284;DHT22;5698;47.332;11.180;2023-04-25T15:24:14;6.10;99.90
11284;DHT22;5698;47.332;11.180;2023-04-25T15:26:41;6.00;99.90
11284;DHT22;5698;47.332;11.180;2023-04-25T15:29:08;6.00;99.90
11284;DHT22;5698;47.332;11.180;2023-04-25T15:31:36;6.00;99.90
11284;DHT22;5698;47.332;11.180;2023-04-25T15:34:04;6.00;99.90
11284;DHT22;5698;47.332;11.180;2023-04-25T15:36:31;6.20;99.90
11284;DHT22;5698;47.332;11.180;2023-04-25T15:38:58;6.30;99.90
11284;DHT22;5698;47.332;11.180;2023-04-25T15:41:25;6.40;99.90
11284;DHT22;5698;47.332;11.180;2023-04-25T15:43:52;6.50;99.90
11284;DHT22;5698;47.332;11.180;2023-04-25T15:46:20;6.50;99.90
11284;DHT22;5698;47.332;11.180;2023-04-25T15:48:48;6.30;99.90